Time;durP1;ratioP1;P1;durP2;ratioP2;P2;SDS_P1;SDS_P2;PMS_P1;PMS_P2;Temp;Humidity;BMP_temperature;BMP_pressure;BME280_temperature;BME280_humidity;BME280_pressure;Samples;Min_cycle;Max_cycle;Signal;HPM_P1;HPM_P2
2023/01/10 00:01:04;;;;;;;0.40;0.40;;;2.30;99.90;;;;;;4164599;28;20203;-66
2023/01/10 00:03:09;;;;;;;0.40;0.40;;;2.40;99.90;;;;;;4163635;28;20968;-66
2023/01/10 00:05:10;;;;;;;0.40;0.40;;;2.50;99.90;;;;;;4165041;28;20437;-66
2023/01/10 00:07:10;;;;;;;0.40;0.40;;;2.30;99.90;;;;;;4163876;28;20430;-66
2023/01/10 00:09:11;;;;;;;0.43;0.43;;;2.30;99.90;;;;;;4162920;28;20233;-66
2023/01/10 00:13:31;;;;;;;0.40;0.40;;;2.20;99.90;;;;;;4164442;28;20244;-65
2023/01/10 00:15:34;;;;;;;0.40;0.40;;;2.20;99.90;;;;;;4164421;28;20481;-66
2023/01/10 00:17:34;;;;;;;0.40;0.40;;;2.10;99.90;;;;;;4163828;28;20276;-66
2023/01/10 00:19:35;;;;;;;0.40;0.40;;;2.10;99.90;;;;;;4164332;28;20418;-65
2023/01/10 00:21:38;;;;;;;0.43;0.43;;;2.10;99.90;;;;;;4163017;28;20250;-66
2023/01/10 00:23:40;;;;;;;0.50;0.50;;;2.00;99.90;;;;;;4163096;28;20560;-66
2023/01/10 00:25:41;;;;;;;0.40;0.40;;;1.90;99.90;;;;;;4162925;28;20921;-66
2023/01/10 00:27:44;;;;;;;0.33;0.33;;;2.00;99.90;;;;;;4163684;28;20426;-66
2023/01/10 00:29:45;;;;;;;0.47;0.47;;;2.00;99.90;;;;;;4164224;28;20190;-66
2023/01/10 00:31:47;;;;;;;2.60;0.83;;;1.90;99.90;;;;;;4164232;28;20454;-66
2023/01/10 00:33:47;;;;;;;0.60;0.60;;;1.80;99.90;;;;;;4164275;28;20430;-66
2023/01/10 00:35:48;;;;;;;1.37;0.60;;;1.70;99.90;;;;;;4164367;28;20898;-66
2023/01/10 00:37:50;;;;;;;0.60;0.60;;;1.70;99.90;;;;;;4162308;28;20205;-65
2023/01/10 00:39:51;;;;;;;0.60;0.60;;;1.70;99.90;;;;;;4164236;28;20583;-65
2023/01/10 00:44:13;;;;;;;2.07;0.80;;;1.80;99.90;;;;;;4152559;28;20620;-65
2023/01/10 00:46:13;;;;;;;1.57;0.73;;;1.90;99.90;;;;;;4163925;28;20418;-65
2023/01/10 00:48:15;;;;;;;2.10;0.80;;;1.90;99.90;;;;;;4163113;28;20694;-65
2023/01/10 00:50:17;;;;;;;2.10;0.80;;;1.90;99.90;;;;;;4162399;28;20218;-65
2023/01/10 00:52:17;;;;;;;1.53;1.43;;;1.80;99.90;;;;;;4162409;28;20427;-65
2023/01/10 00:54:18;;;;;;;2.07;0.90;;;1.90;99.90;;;;;;4163723;28;20431;-64
2023/01/10 00:56:18;;;;;;;1.53;1.07;;;1.80;99.90;;;;;;4163430;28;20252;-63
2023/01/10 00:58:20;;;;;;;0.93;0.87;;;1.90;99.90;;;;;;4163291;28;20216;-65
2023/01/10 01:00:21;;;;;;;1.43;0.70;;;1.90;99.90;;;;;;4162059;28;20254;-64
2023/01/10 01:02:21;;;;;;;1.50;0.80;;;1.80;99.90;;;;;;4163609;28;20796;-65
2023/01/10 01:04:22;;;;;;;1.37;0.93;;;1.80;99.90;;;;;;4163412;28;20656;-64
2023/01/10 01:06:23;;;;;;;2.30;1.00;;;1.80;99.90;;;;;;4161687;28;20177;-65
2023/01/10 01:08:23;;;;;;;3.60;0.83;;;1.80;99.90;;;;;;4163424;28;20254;-65
2023/01/10 01:10:27;;;;;;;0.70;0.70;;;1.80;99.90;;;;;;4163280;28;20187;-65
2023/01/10 01:12:27;;;;;;;1.60;1.00;;;1.90;99.90;;;;;;4163381;28;20228;-65
2023/01/10 01:14:28;;;;;;;2.10;1.00;;;1.90;99.90;;;;;;4163578;28;21036;-65
2023/01/10 01:16:29;;;;;;;4.53;1.00;;;1.80;99.90;;;;;;4162783;28;20557;-64
2023/01/10 01:18:29;;;;;;;2.70;0.93;;;1.80;99.90;;;;;;4162016;28;20678;-65
2023/01/10 01:20:31;;;;;;;2.60;0.90;;;1.80;99.90;;;;;;4163270;28;20206;-65
2023/01/10 01:22:32;;;;;;;1.20;0.90;;;1.80;99.90;;;;;;4163384;28;20214;-64
2023/01/10 01:24:32;;;;;;;1.00;0.90;;;1.80;99.90;;;;;;4163286;28;20420;-65
2023/01/10 01:26:34;;;;;;;0.70;0.70;;;1.90;99.90;;;;;;4162546;28;20183;-65
2023/01/10 01:28:34;;;;;;;1.63;0.90;;;1.90;99.90;;;;;;4163332;28;20187;-65
2023/01/10 01:30:35;;;;;;;1.07;0.80;;;1.90;99.90;;;;;;4163105;28;20462;-65
2023/01/10 01:32:36;;;;;;;1.20;0.80;;;1.90;99.90;;;;;;4161820;28;20206;-65
2023/01/10 01:34:36;;;;;;;1.83;0.80;;;2.00;99.90;;;;;;4162860;28;20185;-65
2023/01/10 01:36:37;;;;;;;1.10;0.80;;;2.00;99.90;;;;;;4161293;28;20199;-65
2023/01/10 01:38:40;;;;;;;1.63;0.63;;;1.90;99.90;;;;;;4165457;28;20691;-64
2023/01/10 01:40:40;;;;;;;0.90;0.80;;;2.00;99.90;;;;;;4167056;28;20200;-65
2023/01/10 01:42:42;;;;;;;0.70;0.60;;;1.90;99.90;;;;;;4164005;28;20821;-65
2023/01/10 01:44:42;;;;;;;0.53;0.53;;;2.00;99.90;;;;;;4162270;28;20183;-64
2023/01/10 01:47:14;;;;;;;0.67;0.60;;;2.00;99.90;;;;;;4162799;28;20438;-64
2023/01/10 01:49:23;;;;;;;0.40;0.40;;;2.00;99.90;;;;;;4161969;28;20271;-64
2023/01/10 01:51:27;;;;;;;0.60;0.60;;;1.90;99.90;;;;;;4161472;28;20489;-65
2023/01/10 01:53:37;;;;;;;0.40;0.40;;;2.10;99.90;;;;;;4161154;28;20518;-65
2023/01/10 01:55:39;;;;;;;0.40;0.40;;;2.10;99.90;;;;;;4145827;28;20427;-64
2023/01/10 01:57:40;;;;;;;1.23;0.50;;;2.20;99.90;;;;;;4146398;28;20460;-64
2023/01/10 01:59:44;;;;;;;0.77;0.50;;;2.10;99.90;;;;;;4145696;28;20773;-64
2023/01/10 02:01:50;;;;;;;0.33;0.33;;;2.30;99.90;;;;;;4145564;28;20204;-65
2023/01/10 02:03:56;;;;;;;0.60;0.50;;;2.50;99.90;;;;;;4146797;28;20578;-65
2023/01/10 02:05:57;;;;;;;0.30;0.30;;;2.40;99.90;;;;;;4147254;28;20431;-65
2023/01/10 02:08:00;;;;;;;0.63;0.40;;;2.20;99.90;;;;;;4145817;28;20924;-65
2023/01/10 02:10:28;;;;;;;0.50;0.50;;;2.20;99.90;;;;;;4146224;28;20192;-64
2023/01/10 02:12:31;;;;;;;0.30;0.30;;;2.00;99.90;;;;;;4146451;28;20442;-64
2023/01/10 02:14:33;;;;;;;0.37;0.37;;;1.90;99.90;;;;;;4144961;28;20416;-64
2023/01/10 02:16:34;;;;;;;0.40;0.40;;;1.90;99.90;;;;;;4145430;28;20417;-65
2023/01/10 02:18:37;;;;;;;0.40;0.30;;;1.90;99.90;;;;;;4146063;28;20510;-65
2023/01/10 02:21:02;;;;;;;0.30;0.30;;;1.80;99.90;;;;;;4144775;28;20695;-65
2023/01/10 02:24:08;;;;;;;0.40;0.40;;;1.70;99.90;;;;;;4146057;28;20968;-65
2023/01/10 02:26:37;;;;;;;0.57;0.57;;;1.70;99.90;;;;;;4145897;28;20415;-65
2023/01/10 02:29:18;;;;;;;0.40;0.40;;;1.70;99.90;;;;;;4144646;28;20419;-65
2023/01/10 02:31:58;;;;;;;0.50;0.50;;;1.50;99.90;;;;;;4144762;28;20443;-65
2023/01/10 02:34:23;;;;;;;0.70;0.50;;;1.50;99.90;;;;;;4144575;28;20536;-65
2023/01/10 02:36:40;;;;;;;1.47;0.70;;;1.50;99.90;;;;;;4145637;28;20419;-64
2023/01/10 02:39:11;;;;;;;2.13;0.60;;;1.50;99.90;;;;;;4144436;28;20849;-65
2023/01/10 02:41:23;;;;;;;1.10;0.70;;;1.50;99.90;;;;;;4144607;28;20881;-65
2023/01/10 02:43:33;;;;;;;0.77;0.70;;;1.50;99.90;;;;;;4145702;28;20423;-65
2023/01/10 02:45:51;;;;;;;0.60;0.60;;;1.40;99.90;;;;;;4144466;28;20445;-65
2023/01/10 02:47:52;;;;;;;0.97;0.50;;;1.40;99.90;;;;;;4143941;28;21141;-65
2023/01/10 02:49:53;;;;;;;0.47;0.47;;;1.50;99.90;;;;;;4144308;28;20432;-65
2023/01/10 02:51:54;;;;;;;0.50;0.50;;;1.50;99.90;;;;;;4145859;28;20251;-65
2023/01/10 02:54:08;;;;;;;1.00;0.80;;;1.50;99.90;;;;;;4145800;28;20177;-65
2023/01/10 02:56:43;;;;;;;1.10;0.80;;;1.40;99.90;;;;;;4144672;28;20414;-66
2023/01/10 02:58:59;;;;;;;3.53;1.10;;;1.40;99.90;;;;;;4127058;28;20481;-66
2023/01/10 03:01:55;;;;;;;4.40;1.50;;;1.40;99.90;;;;;;4144618;28;20446;-66
2023/01/10 03:04:06;;;;;;;3.57;1.30;;;1.40;99.90;;;;;;4111262;28;20920;-66
2023/01/10 03:06:46;;;;;;;4.87;1.73;;;1.40;99.90;;;;;;4136745;28;20451;-66
2023/01/10 03:09:23;;;;;;;4.63;1.60;;;1.40;99.90;;;;;;4146061;28;20432;-65
2023/01/10 03:11:40;;;;;;;3.03;2.03;;;1.40;99.90;;;;;;4143279;28;20870;-65
2023/01/10 03:13:56;;;;;;;2.70;1.40;;;1.40;99.90;;;;;;4149133;28;20433;-65
2023/01/10 03:16:00;;;;;;;5.93;1.60;;;1.40;99.90;;;;;;4147846;28;21070;-65
2023/01/10 03:18:06;;;;;;;4.23;1.60;;;1.40;99.90;;;;;;4146938;28;20522;-64
2023/01/10 03:20:08;;;;;;;13.33;1.60;;;1.40;99.90;;;;;;4147676;28;21071;-65
2023/01/10 03:22:10;;;;;;;6.87;1.93;;;1.40;99.90;;;;;;4148966;28;20454;-65
2023/01/10 03:24:22;;;;;;;4.33;1.40;;;1.40;99.90;;;;;;4147659;28;20419;-65
2023/01/10 03:26:50;;;;;;;3.00;1.40;;;1.40;99.90;;;;;;4147059;28;21027;-65
2023/01/10 03:29:01;;;;;;;3.20;1.70;;;1.40;99.90;;;;;;4147454;28;20532;-65
2023/01/10 03:31:14;;;;;;;3.43;2.10;;;1.40;99.90;;;;;;4147469;28;20482;-65
2023/01/10 03:33:21;;;;;;;5.23;1.73;;;1.40;99.90;;;;;;4147488;28;20422;-66
2023/01/10 03:35:32;;;;;;;4.47;1.63;;;1.40;99.90;;;;;;4147498;28;20426;-64
2023/01/10 03:37:41;;;;;;;2.70;1.60;;;1.30;99.90;;;;;;4146742;28;20557;-65
2023/01/10 03:40:04;;;;;;;4.67;1.40;;;1.30;99.90;;;;;;4151089;28;20430;-64
2023/01/10 03:44:42;;;;;;;12.83;1.87;;;1.30;99.90;;;;;;4150272;28;20444;-64
2023/01/10 03:45:05;;;;;;;5.93;1.70;;;1.30;99.90;;;;;;4147457;28;20404;-65
2023/01/10 03:47:25;;;;;;;4.03;1.57;;;1.30;99.90;;;;;;4146710;28;20432;-65
2023/01/10 03:49:28;;;;;;;4.37;1.70;;;1.30;99.90;;;;;;4158039;28;20438;-65
2023/01/10 03:51:30;;;;;;;4.53;1.60;;;1.40;99.90;;;;;;4163409;28;20478;-65
2023/01/10 03:53:36;;;;;;;3.27;1.37;;;1.50;99.90;;;;;;4158714;28;20858;-65
2023/01/10 03:55:39;;;;;;;6.00;1.80;;;1.50;99.90;;;;;;4163131;28;20485;-65
2023/01/10 03:57:44;;;;;;;8.20;1.97;;;1.60;99.90;;;;;;4162890;28;20864;-65
2023/01/10 03:59:47;;;;;;;2.60;1.43;;;1.60;99.90;;;;;;4164793;28;20981;-65
2023/01/10 04:01:47;;;;;;;4.57;1.60;;;1.60;99.90;;;;;;4163023;28;20453;-65
2023/01/10 04:03:48;;;;;;;5.43;1.43;;;1.60;99.90;;;;;;4156490;28;20527;-65
2023/01/10 04:05:49;;;;;;;2.93;1.47;;;1.60;99.90;;;;;;4148168;28;20318;-65
2023/01/10 04:07:49;;;;;;;5.07;1.50;;;1.60;99.90;;;;;;4147533;28;20227;-65
2023/01/10 04:09:50;;;;;;;5.33;1.13;;;1.50;99.90;;;;;;4157587;28;20196;-65
2023/01/10 04:11:51;;;;;;;3.90;1.10;;;1.50;99.90;;;;;;4163124;28;20565;-65
2023/01/10 04:13:51;;;;;;;4.10;1.27;;;1.40;99.90;;;;;;4164288;28;20212;-64
2023/01/10 04:15:52;;;;;;;3.43;1.53;;;1.50;99.90;;;;;;4164255;28;20249;-65
2023/01/10 04:17:53;;;;;;;4.27;1.37;;;1.50;99.90;;;;;;4163743;28;20219;-65
2023/01/10 04:19:54;;;;;;;3.63;1.10;;;1.50;99.90;;;;;;4163888;28;20223;-65
2023/01/10 04:21:55;;;;;;;3.63;1.13;;;1.40;99.90;;;;;;4164586;28;20449;-64
2023/01/10 04:23:55;;;;;;;3.87;1.80;;;1.40;99.90;;;;;;4164207;28;20223;-65
2023/01/10 04:25:56;;;;;;;5.80;1.50;;;1.50;99.90;;;;;;4164326;28;20192;-65
2023/01/10 04:27:57;;;;;;;2.07;1.20;;;1.40;99.90;;;;;;4162506;28;20227;-65
2023/01/10 04:29:57;;;;;;;2.70;1.13;;;1.60;99.90;;;;;;4162902;28;20185;-64
2023/01/10 04:31:58;;;;;;;5.20;1.30;;;1.50;99.90;;;;;;4162948;28;20206;-65
2023/01/10 04:33:59;;;;;;;2.50;1.10;;;1.60;99.90;;;;;;4164109;28;20219;-65
2023/01/10 04:35:59;;;;;;;6.23;1.47;;;1.60;99.90;;;;;;4164112;28;20188;-64
2023/01/10 04:38:00;;;;;;;2.57;1.30;;;1.60;99.90;;;;;;4163274;28;20219;-65
2023/01/10 04:40:01;;;;;;;3.90;1.30;;;1.70;99.90;;;;;;4163837;28;20202;-64
2023/01/10 04:42:01;;;;;;;5.63;1.10;;;1.70;99.90;;;;;;4164147;28;20246;-64
2023/01/10 04:44:03;;;;;;;5.07;1.53;;;1.80;99.90;;;;;;4163936;28;20198;-65
2023/01/10 04:46:04;;;;;;;3.27;1.30;;;1.70;99.90;;;;;;4163707;28;20189;-65
2023/01/10 04:48:05;;;;;;;3.40;1.10;;;1.80;99.90;;;;;;4163217;28;20439;-65
2023/01/10 04:50:06;;;;;;;7.30;3.00;;;1.70;99.90;;;;;;4163744;28;20195;-66
2023/01/10 04:52:07;;;;;;;8.40;2.00;;;1.90;99.90;;;;;;4163867;28;20496;-66
2023/01/10 04:54:08;;;;;;;6.03;1.50;;;1.80;99.90;;;;;;4164134;28;20439;-65
2023/01/10 04:56:15;;;;;;;6.83;2.87;;;1.70;99.90;;;;;;4162568;28;20638;-65
2023/01/10 04:58:16;;;;;;;8.93;1.70;;;1.70;99.90;;;;;;4163251;28;20754;-65
2023/01/10 05:00:17;;;;;;;6.13;2.40;;;1.70;99.90;;;;;;4163650;28;20433;-65
2023/01/10 05:02:18;;;;;;;7.30;2.57;;;1.80;99.90;;;;;;4163607;28;20188;-65
2023/01/10 05:04:18;;;;;;;4.03;1.77;;;1.70;99.90;;;;;;4162241;28;20434;-65
2023/01/10 05:06:21;;;;;;;6.00;1.90;;;1.80;99.90;;;;;;4163330;28;20655;-66
2023/01/10 05:08:22;;;;;;;4.10;2.10;;;1.70;99.90;;;;;;4161728;28;20224;-64
2023/01/10 05:10:22;;;;;;;8.90;1.83;;;1.60;99.90;;;;;;4163409;28;20980;-65
2023/01/10 05:12:23;;;;;;;4.97;1.50;;;1.50;99.90;;;;;;4162310;28;20625;-65
2023/01/10 05:14:24;;;;;;;3.50;1.27;;;1.50;99.90;;;;;;4163391;28;20217;-65
2023/01/10 05:16:24;;;;;;;7.40;2.00;;;1.60;99.90;;;;;;4162980;28;20215;-65
2023/01/10 05:18:27;;;;;;;6.07;1.30;;;1.70;99.90;;;;;;4162979;28;20303;-65
2023/01/10 05:20:27;;;;;;;3.97;1.93;;;1.60;99.90;;;;;;4162124;28;20180;-66
2023/01/10 05:22:28;;;;;;;3.70;1.40;;;1.60;99.90;;;;;;4163251;28;20923;-66
2023/01/10 05:24:29;;;;;;;5.90;1.20;;;1.60;99.90;;;;;;4163283;28;20216;-66
2023/01/10 05:26:29;;;;;;;3.83;2.27;;;1.80;99.90;;;;;;4163094;28;20246;-66
2023/01/10 05:28:30;;;;;;;7.90;1.83;;;2.00;99.90;;;;;;4161715;28;20310;-66
2023/01/10 05:30:31;;;;;;;4.33;1.50;;;2.10;99.90;;;;;;4162559;28;20667;-65
2023/01/10 05:32:31;;;;;;;7.17;1.83;;;2.30;99.90;;;;;;4162592;28;20765;-65
2023/01/10 05:34:32;;;;;;;5.47;1.60;;;2.10;99.90;;;;;;4163168;28;20211;-65
2023/01/10 05:36:33;;;;;;;7.83;1.60;;;1.90;99.90;;;;;;4161457;28;20195;-65
2023/01/10 05:38:33;;;;;;;5.10;1.43;;;1.70;99.90;;;;;;4164198;28;20212;-65
2023/01/10 05:40:34;;;;;;;5.00;1.60;;;1.60;99.90;;;;;;4166340;28;20204;-65
2023/01/10 05:42:35;;;;;;;5.77;1.60;;;1.50;99.90;;;;;;4163778;28;20211;-65
2023/01/10 05:44:35;;;;;;;4.80;1.60;;;1.60;99.90;;;;;;4163064;28;20205;-65
2023/01/10 05:46:36;;;;;;;7.17;1.53;;;1.50;99.90;;;;;;4162315;28;20176;-64
2023/01/10 05:48:37;;;;;;;4.43;1.77;;;1.40;99.90;;;;;;4161273;28;20198;-65
2023/01/10 05:50:37;;;;;;;7.70;2.00;;;1.40;99.90;;;;;;4162944;28;20211;-65
2023/01/10 05:52:39;;;;;;;5.97;2.07;;;1.30;99.90;;;;;;4162906;28;20270;-65
2023/01/10 05:54:40;;;;;;;10.23;3.67;;;1.30;99.90;;;;;;4162977;28;20188;-65
2023/01/10 05:56:41;;;;;;;3.63;1.40;;;1.30;99.90;;;;;;4162321;28;20448;-65
2023/01/10 05:58:42;;;;;;;7.37;3.60;;;1.40;99.90;;;;;;4162783;28;20346;-65
2023/01/10 06:00:43;;;;;;;6.57;2.80;;;1.50;99.90;;;;;;4162576;28;20443;-65
2023/01/10 06:02:43;;;;;;;4.73;2.40;;;1.60;99.90;;;;;;4154760;28;20189;-64
2023/01/10 06:04:44;;;;;;;3.53;1.50;;;1.60;99.90;;;;;;4146209;28;20214;-65
2023/01/10 06:06:45;;;;;;;3.50;1.67;;;1.60;99.90;;;;;;4145571;28;20228;-65
2023/01/10 06:08:45;;;;;;;7.83;2.07;;;1.60;99.90;;;;;;4145868;28;20207;-65
2023/01/10 06:10:46;;;;;;;6.23;1.90;;;1.50;99.90;;;;;;4157279;28;20265;-64
2023/01/10 06:12:48;;;;;;;6.80;2.00;;;1.50;99.90;;;;;;4162055;28;20683;-65
2023/01/10 06:14:49;;;;;;;8.07;2.37;;;1.50;99.90;;;;;;4162388;28;20230;-65
2023/01/10 06:16:49;;;;;;;8.10;2.20;;;1.40;99.90;;;;;;4160434;28;20428;-65
2023/01/10 06:18:50;;;;;;;8.97;1.83;;;1.50;99.90;;;;;;4160891;28;20203;-64
2023/01/10 06:20:53;;;;;;;5.10;2.27;;;1.60;99.90;;;;;;4162553;28;20238;-64
2023/01/10 06:22:54;;;;;;;7.97;2.70;;;1.50;99.90;;;;;;4162243;28;20460;-64
2023/01/10 06:24:54;;;;;;;6.70;2.00;;;1.40;99.90;;;;;;4162098;28;20434;-64
2023/01/10 06:26:55;;;;;;;5.80;1.50;;;1.40;99.90;;;;;;4161460;28;20910;-64
2023/01/10 06:28:58;;;;;;;3.73;2.30;;;1.50;99.90;;;;;;4162082;28;20729;-64
2023/01/10 06:30:59;;;;;;;4.67;1.80;;;1.50;99.90;;;;;;4161932;28;20211;-65
2023/01/10 06:33:04;;;;;;;7.13;1.53;;;1.50;99.90;;;;;;4162150;28;20817;-65
2023/01/10 06:35:05;;;;;;;6.23;2.13;;;1.50;99.90;;;;;;4162089;28;20184;-65
2023/01/10 06:37:07;;;;;;;4.87;1.30;;;1.60;99.90;;;;;;4160041;28;20459;-65
2023/01/10 06:39:08;;;;;;;5.53;1.90;;;1.50;99.90;;;;;;4161830;28;20510;-64
2023/01/10 06:41:14;;;;;;;3.93;1.40;;;1.50;99.90;;;;;;4161871;28;20456;-65
2023/01/10 06:43:15;;;;;;;8.43;2.93;;;1.50;99.90;;;;;;4162044;28;20168;-65
2023/01/10 06:45:16;;;;;;;3.67;1.67;;;1.60;99.90;;;;;;4162140;28;20431;-65
2023/01/10 06:47:16;;;;;;;5.27;1.70;;;1.60;99.90;;;;;;4161468;28;20266;-64
2023/01/10 06:49:17;;;;;;;2.67;2.00;;;1.60;99.90;;;;;;4161954;28;20211;-65
2023/01/10 06:51:18;;;;;;;5.73;2.00;;;1.60;99.90;;;;;;4162089;28;20252;-65
2023/01/10 06:53:18;;;;;;;3.70;1.90;;;1.70;99.90;;;;;;4160561;28;20245;-65
2023/01/10 06:55:19;;;;;;;4.97;1.80;;;1.70;99.90;;;;;;4162279;28;20190;-65
2023/01/10 06:57:20;;;;;;;4.90;2.17;;;1.80;99.90;;;;;;4161781;28;20209;-65
2023/01/10 06:59:20;;;;;;;9.53;2.30;;;1.80;99.90;;;;;;4161359;28;20272;-65
2023/01/10 07:01:21;;;;;;;8.47;2.20;;;1.80;99.90;;;;;;4162539;28;20298;-64
2023/01/10 07:03:22;;;;;;;3.87;1.70;;;1.80;99.90;;;;;;4161426;28;20970;-65
2023/01/10 07:05:22;;;;;;;6.27;1.63;;;1.70;99.90;;;;;;4161293;28;20231;-65
2023/01/10 07:07:23;;;;;;;6.43;2.20;;;1.50;99.90;;;;;;4161850;28;20200;-64
2023/01/10 07:09:24;;;;;;;3.57;1.77;;;1.40;99.90;;;;;;4162523;28;20725;-65
2023/01/10 07:11:24;;;;;;;8.50;2.37;;;1.30;99.90;;;;;;4167857;28;20798;-64
2023/01/10 07:13:25;;;;;;;4.40;2.47;;;1.30;99.90;;;;;;4169035;28;20661;-65
2023/01/10 07:15:27;;;;;;;5.73;2.13;;;1.30;99.90;;;;;;4168705;28;20180;-65
2023/01/10 07:17:29;;;;;;;4.57;1.50;;;1.30;99.90;;;;;;4166812;28;20305;-65
2023/01/10 07:19:29;;;;;;;10.13;1.80;;;1.20;99.90;;;;;;4166759;28;20428;-66
2023/01/10 07:21:30;;;;;;;5.33;1.87;;;1.20;99.90;;;;;;4162594;28;21039;-65
2023/01/10 07:23:31;;;;;;;5.23;2.67;;;1.20;99.90;;;;;;4166124;28;20183;-65
2023/01/10 07:25:32;;;;;;;30.03;11.67;;;1.30;99.90;;;;;;4167790;28;20211;-64
2023/01/10 07:27:32;;;;;;;10.20;4.53;;;1.30;99.90;;;;;;4167089;28;20185;-64
2023/01/10 07:29:33;;;;;;;7.40;2.20;;;1.30;99.90;;;;;;4167816;28;20187;-64
2023/01/10 07:31:34;;;;;;;4.23;1.60;;;1.40;99.90;;;;;;4170031;28;20200;-64
2023/01/10 07:33:34;;;;;;;5.73;1.70;;;1.40;99.90;;;;;;4169755;28;20181;-64
2023/01/10 07:35:36;;;;;;;3.63;1.70;;;1.30;99.90;;;;;;4169438;28;20185;-64
2023/01/10 07:37:36;;;;;;;9.77;3.30;;;1.30;99.90;;;;;;4169362;28;20200;-64
2023/01/10 07:39:37;;;;;;;9.83;4.20;;;1.30;99.90;;;;;;4170602;28;21150;-64
2023/01/10 07:41:38;;;;;;;8.80;4.33;;;1.50;99.90;;;;;;4165898;28;20221;-64
2023/01/10 07:43:39;;;;;;;14.13;4.03;;;1.50;99.90;;;;;;4168169;28;20690;-63
2023/01/10 07:45:39;;;;;;;12.73;4.73;;;1.60;99.90;;;;;;4170393;28;20276;-64
2023/01/10 07:47:40;;;;;;;12.80;4.57;;;1.60;99.90;;;;;;4169436;28;20199;-64
2023/01/10 07:49:40;;;;;;;6.60;1.87;;;1.60;99.90;;;;;;4169698;28;20183;-63
2023/01/10 07:51:41;;;;;;;8.00;1.60;;;1.60;99.90;;;;;;4169692;28;20208;-64
2023/01/10 07:53:42;;;;;;;3.40;1.50;;;1.60;99.90;;;;;;4169463;28;20190;-64
2023/01/10 07:55:44;;;;;;;10.17;2.43;;;1.70;99.90;;;;;;4172337;28;20234;-64
2023/01/10 07:57:45;;;;;;;7.43;3.20;;;1.70;99.90;;;;;;4172366;28;20208;-64
2023/01/10 07:59:46;;;;;;;4.87;1.27;;;1.70;99.90;;;;;;4171943;28;20452;-64
2023/01/10 08:01:47;;;;;;;4.00;1.43;;;1.80;99.90;;;;;;4173062;28;20209;-64
2023/01/10 08:03:48;;;;;;;7.77;1.70;;;1.90;99.90;;;;;;4172162;28;20180;-64
2023/01/10 08:05:48;;;;;;;4.37;1.90;;;1.80;99.90;;;;;;4172876;28;20455;-64
2023/01/10 08:07:49;;;;;;;6.83;1.70;;;1.70;99.90;;;;;;4169207;28;20205;-65
2023/01/10 08:09:50;;;;;;;7.80;2.00;;;1.70;99.90;;;;;;4154484;28;20191;-64
2023/01/10 08:11:50;;;;;;;2.40;1.63;;;1.60;99.90;;;;;;4149804;28;20219;-64
2023/01/10 08:13:51;;;;;;;4.50;2.40;;;1.70;99.90;;;;;;4149768;28;20915;-64
2023/01/10 08:15:52;;;;;;;6.80;2.50;;;1.60;99.90;;;;;;4156985;28;20191;-64
2023/01/10 08:17:53;;;;;;;6.27;2.20;;;1.50;99.90;;;;;;4157238;28;20225;-65
2023/01/10 08:19:53;;;;;;;9.60;3.23;;;1.60;99.90;;;;;;4165184;28;20182;-64
2023/01/10 08:21:55;;;;;;;19.63;6.80;;;1.40;99.90;;;;;;4165134;28;20207;-66
2023/01/10 08:23:55;;;;;;;9.27;2.93;;;1.30;99.90;;;;;;4163536;28;20272;-65
2023/01/10 08:25:58;;;;;;;48.90;12.73;;;1.40;99.90;;;;;;4164666;28;20455;-66
2023/01/10 08:27:58;;;;;;;11.03;3.70;;;1.60;99.90;;;;;;4162795;28;20580;-66
2023/01/10 08:29:59;;;;;;;8.63;2.33;;;1.80;99.90;;;;;;4164242;28;20426;-65
2023/01/10 08:32:00;;;;;;;13.03;3.27;;;1.90;99.90;;;;;;4164080;28;20210;-66
2023/01/10 08:34:01;;;;;;;21.10;6.20;;;1.90;99.90;;;;;;4164062;28;20188;-66
2023/01/10 08:36:01;;;;;;;20.40;4.83;;;1.90;99.90;;;;;;4164284;28;20193;-65
2023/01/10 08:38:02;;;;;;;16.23;4.40;;;1.90;99.90;;;;;;4163348;28;20683;-65
2023/01/10 08:40:04;;;;;;;7.00;2.40;;;2.00;99.90;;;;;;4164106;28;20609;-65
2023/01/10 08:42:04;;;;;;;10.07;2.67;;;2.00;99.90;;;;;;4162938;28;20212;-65
2023/01/10 08:44:05;;;;;;;4.10;1.40;;;2.10;99.90;;;;;;4163956;28;20434;-65
2023/01/10 08:46:06;;;;;;;8.67;3.03;;;2.30;99.90;;;;;;4164114;28;20270;-65
2023/01/10 08:48:09;;;;;;;4.97;2.27;;;2.40;99.90;;;;;;4163310;28;20184;-65
2023/01/10 08:50:10;;;;;;;15.03;4.17;;;2.40;99.90;;;;;;4162639;28;20485;-66
2023/01/10 08:52:11;;;;;;;4.27;1.53;;;2.30;99.90;;;;;;4162227;28;20463;-65
2023/01/10 08:54:11;;;;;;;12.67;3.73;;;2.40;99.90;;;;;;4163568;28;20198;-66
2023/01/10 08:56:12;;;;;;;7.83;2.27;;;2.30;99.90;;;;;;4162527;28;20462;-65
2023/01/10 08:58:13;;;;;;;12.23;4.47;;;2.40;99.90;;;;;;4157097;28;20298;-66
2023/01/10 09:00:14;;;;;;;12.30;5.07;;;2.50;99.90;;;;;;4155121;28;20195;-66
2023/01/10 09:02:15;;;;;;;5.73;1.93;;;2.50;99.90;;;;;;4148980;28;20181;-65
2023/01/10 09:04:16;;;;;;;16.57;3.80;;;2.70;99.90;;;;;;4147319;28;20504;-66
2023/01/10 09:06:16;;;;;;;5.83;2.33;;;2.70;99.90;;;;;;4146106;28;20256;-65
2023/01/10 09:08:17;;;;;;;6.83;1.90;;;2.90;99.90;;;;;;4146727;28;20197;-65
2023/01/10 09:10:18;;;;;;;6.03;1.90;;;3.10;99.90;;;;;;4145687;28;20189;-65
2023/01/10 09:14:37;;;;;;;5.13;1.67;;;3.40;99.90;;;;;;4147254;28;20220;-66
2023/01/10 09:16:39;;;;;;;3.10;1.50;;;3.50;99.90;;;;;;4146244;28;20916;-64
2023/01/10 09:18:39;;;;;;;5.30;1.53;;;3.40;99.90;;;;;;4147037;28;20248;-65
2023/01/10 09:20:42;;;;;;;5.20;1.70;;;3.40;99.90;;;;;;4146942;28;20479;-67
2023/01/10 09:22:42;;;;;;;3.23;1.30;;;3.00;99.90;;;;;;4145922;28;20775;-63
2023/01/10 09:24:43;;;;;;;3.13;1.00;;;3.00;99.90;;;;;;4147387;28;20446;-64
2023/01/10 09:26:44;;;;;;;4.83;1.30;;;2.90;99.90;;;;;;4146478;28;20193;-64
2023/01/10 09:28:44;;;;;;;4.87;1.60;;;3.00;99.90;;;;;;4147011;28;20209;-66
2023/01/10 09:30:46;;;;;;;2.97;1.07;;;2.90;99.90;;;;;;4146747;28;20215;-65
2023/01/10 09:32:54;;;;;;;2.37;1.00;;;2.90;99.90;;;;;;4146668;28;20271;-66
2023/01/10 09:34:55;;;;;;;3.27;0.87;;;2.90;99.90;;;;;;4145711;28;20467;-67
2023/01/10 09:36:55;;;;;;;5.20;1.30;;;3.00;99.90;;;;;;4146283;28;20911;-66
2023/01/10 09:38:56;;;;;;;2.30;1.30;;;3.00;99.90;;;;;;4145429;28;20698;-65
2023/01/10 09:41:37;;;;;;;4.60;1.00;;;3.00;99.90;;;;;;4148313;28;20537;-65
2023/01/10 09:44:13;;;;;;;9.43;2.40;;;3.00;99.90;;;;;;4147823;28;20260;-64
2023/01/10 09:46:49;;;;;;;5.77;1.90;;;3.10;99.90;;;;;;4161990;28;20411;-64
2023/01/10 09:49:04;;;;;;;4.83;1.73;;;3.10;99.90;;;;;;4145357;28;20419;-64
2023/01/10 09:51:23;;;;;;;6.97;1.80;;;3.30;99.90;;;;;;4146694;28;20991;-65
2023/01/10 09:53:29;;;;;;;3.13;1.67;;;3.40;99.90;;;;;;4129359;28;20468;-65
2023/01/10 09:55:33;;;;;;;4.20;1.30;;;3.30;99.90;;;;;;4161775;28;20458;-66
2023/01/10 09:57:34;;;;;;;4.37;1.70;;;3.10;99.90;;;;;;4144630;28;20490;-65
2023/01/10 09:59:39;;;;;;;5.10;1.40;;;2.90;99.90;;;;;;4146599;28;20423;-65
2023/01/10 10:01:39;;;;;;;4.53;2.10;;;2.90;99.90;;;;;;4161911;28;20279;-65
2023/01/10 10:03:53;;;;;;;1.67;1.10;;;3.00;99.90;;;;;;4146952;28;20811;-65
2023/01/10 10:05:54;;;;;;;1.10;0.90;;;3.20;99.90;;;;;;4162112;28;20187;-64
2023/01/10 10:08:01;;;;;;;3.30;1.53;;;3.10;99.90;;;;;;4144918;28;20465;-65
2023/01/10 10:10:05;;;;;;;3.97;1.63;;;2.70;99.90;;;;;;4161459;28;20201;-65
2023/01/10 10:12:42;;;;;;;7.53;2.50;;;2.70;99.90;;;;;;4145325;28;20459;-65
2023/01/10 10:15:01;;;;;;;3.00;1.67;;;2.80;99.90;;;;;;4145514;28;20424;-65
2023/01/10 10:17:28;;;;;;;2.47;1.30;;;2.80;99.90;;;;;;4160837;28;20829;-65
2023/01/10 10:20:11;;;;;;;3.93;1.73;;;2.80;99.90;;;;;;4161281;28;20434;-66
2023/01/10 10:22:40;;;;;;;3.60;1.80;;;3.10;99.90;;;;;;4161043;28;20897;-65
2023/01/10 10:25:06;;;;;;;3.30;2.20;;;3.30;99.90;;;;;;4162707;28;20465;-64
2023/01/10 10:27:16;;;;;;;6.80;1.60;;;3.60;99.90;;;;;;4161734;28;20419;-66
2023/01/10 10:29:40;;;;;;;4.97;1.27;;;4.40;99.90;;;;;;4162473;28;20523;-66
2023/01/10 10:32:17;;;;;;;2.77;1.23;;;4.90;99.30;;;;;;4162409;28;20699;-66
2023/01/10 10:34:35;;;;;;;4.23;1.10;;;5.30;98.30;;;;;;4161125;28;20184;-66
2023/01/10 10:36:53;;;;;;;2.13;1.03;;;5.70;96.90;;;;;;4160347;28;20176;-65
2023/01/10 10:38:58;;;;;;;1.93;1.20;;;5.80;95.50;;;;;;4162028;28;20938;-66
2023/01/10 10:41:00;;;;;;;4.03;1.20;;;6.40;94.30;;;;;;4160903;28;20204;-66
2023/01/10 10:43:20;;;;;;;3.40;1.30;;;6.50;91.70;;;;;;4162343;28;20902;-65
2023/01/10 10:45:40;;;;;;;3.33;1.43;;;6.50;92.50;;;;;;4160892;28;20632;-66
2023/01/10 10:47:48;;;;;;;3.17;0.97;;;6.20;90.10;;;;;;4160194;28;20161;-66
2023/01/10 10:50:14;;;;;;;4.30;1.30;;;5.30;92.80;;;;;;4160940;28;20184;-66
2023/01/10 10:52:26;;;;;;;4.70;1.70;;;4.90;94.90;;;;;;4162575;28;20253;-66
2023/01/10 10:54:27;;;;;;;5.53;1.20;;;4.90;95.30;;;;;;4162222;28;20176;-66
2023/01/10 10:56:28;;;;;;;5.57;1.23;;;5.70;93.40;;;;;;4160258;28;20806;-66
2023/01/10 10:58:30;;;;;;;4.30;1.20;;;6.10;92.20;;;;;;4160661;28;20574;-65
2023/01/10 11:00:32;;;;;;;3.20;1.20;;;6.20;91.10;;;;;;4160538;28;20219;-65
2023/01/10 11:03:10;;;;;;;2.83;1.10;;;6.40;91.70;;;;;;4160484;28;20193;-67
2023/01/10 11:05:45;;;;;;;2.90;1.20;;;6.70;88.70;;;;;;4161606;28;20181;-69
2023/01/10 11:07:47;;;;;;;5.23;1.60;;;7.60;84.50;;;;;;4148870;28;20572;-65